Language: 


Des rapports , des résumés tant et plus, au choix de chacun....


Données Historiques de Météogheer
Journalier Rapport pour Décembre 9, 2017 Unitée:  Les deux    Impériale   Métrique
Suivant Jour »
Journalier Hebdomadaire Mensuel Annuel Sur mesure
  Max: Min: Moyenne:
Température: 39.6 °F /  4.2 °C 29.5 °F /  -1.4 °C 33.8 °F /  1 °C
Point de rosée: 35.6 °F /  2.0 °C 26.6 °F /  -3.0 °C 31.5 °F /  -0.3 °C
Humidité: 98% 79% 91%
Vent: 10.3mph /  16.6km/h - 5.2mph /  8.3km/h
Rafales: 14.8mph /  23.8km/h - -
Vent- - WSW
Pression: 30 in /  1016.1 hPa 29.7 in /  1007.0 hPa -
Pluie: 0 in /  0.0 mm    
Historical Graphs
 
 
Données tabulaires pour Décembre 9, 2017
Heure Température Point de rosée Pression Vent Vent Rafales Humidité Pluie Taux (Horaire) Conditions
00:01 32.4 °F /  0.2 °C 30.2 °F /  -1.0 °C 30in /  1015.1hPa WSW 5.4mph /  8.7km/h 7.6mph /  12.2km/h 87% 0in /  0.0mm
00:06 32.4 °F /  0.2 °C 30.2 °F /  -1.0 °C 30in /  1015.1hPa West 5.6mph /  9.0km/h 8.7mph /  14.0km/h 88% 0in /  0.0mm
00:22 32.4 °F /  0.2 °C 30.2 °F /  -1.0 °C 30in /  1015.1hPa WSW 6mph /  9.7km/h 9.6mph /  15.4km/h 89% 0in /  0.0mm
00:27 32.4 °F /  0.2 °C 30.2 °F /  -1.0 °C 30in /  1015.1hPa West 5.6mph /  9.0km/h 7.8mph /  12.6km/h 89% 0in /  0.0mm
00:32 32.2 °F /  0.1 °C 30.2 °F /  -1.0 °C 30in /  1015.1hPa West 6.3mph /  10.1km/h 7.8mph /  12.6km/h 89% 0in /  0.0mm
00:37 32.2 °F /  0.1 °C 30.2 °F /  -1.0 °C 30in /  1015.1hPa West 6mph /  9.7km/h 7.4mph /  11.9km/h 89% 0in /  0.0mm
00:42 32.4 °F /  0.2 °C 30.2 °F /  -1.0 °C 29.9in /  1014.1hPa West 4.7mph /  7.6km/h 7.2mph /  11.6km/h 90% 0in /  0.0mm
00:47 32.7 °F /  0.4 °C 30.2 °F /  -1.0 °C 29.9in /  1014.1hPa West 4.9mph /  7.9km/h 7.8mph /  12.6km/h 91% 0in /  0.0mm
00:52 32.7 °F /  0.4 °C 30.2 °F /  -1.0 °C 29.9in /  1014.1hPa West 4mph /  6.4km/h 8.5mph /  13.7km/h 91% 0in /  0.0mm
00:57 32.9 °F /  0.5 °C 32 °F /  0.0 °C 29.9in /  1014.1hPa West 5.4mph /  8.7km/h 8.5mph /  13.7km/h 91% 0in /  0.0mm
01:02 32.9 °F /  0.5 °C 32 °F /  0.0 °C 29.9in /  1014.1hPa West 1.6mph /  2.6km/h 8.7mph /  14.0km/h 91% 0in /  0.0mm
01:07 32.7 °F /  0.4 °C 30.2 °F /  -1.0 °C 29.9in /  1014.1hPa West 7.2mph /  11.6km/h 8.7mph /  14.0km/h 91% 0in /  0.0mm
01:17 32.7 °F /  0.4 °C 30.2 °F /  -1.0 °C 30in /  1015.1hPa West 8.1mph /  13.0km/h 8.1mph /  13.0km/h 91% 0in /  0.0mm
01:27 32.7 °F /  0.4 °C 30.2 °F /  -1.0 °C 29.9in /  1014.1hPa West 6mph /  9.7km/h 8.1mph /  13.0km/h 91% 0in /  0.0mm
01:32 32.5 °F /  0.3 °C 30.2 °F /  -1.0 °C 29.9in /  1014.1hPa West 7.4mph /  11.9km/h 7.4mph /  11.9km/h 91% 0in /  0.0mm
01:37 32.5 °F /  0.3 °C 30.2 °F /  -1.0 °C 29.9in /  1014.1hPa WSW 6.3mph /  10.1km/h 7.4mph /  11.9km/h 91% 0in /  0.0mm
01:42 32.4 °F /  0.2 °C 30.2 °F /  -1.0 °C 30in /  1015.1hPa West 6.5mph /  10.5km/h 7.4mph /  11.9km/h 90% 0in /  0.0mm
01:47 32.2 °F /  0.1 °C 30.2 °F /  -1.0 °C 30in /  1015.1hPa WSW 0.9mph /  1.4km/h 6.5mph /  10.5km/h 90% 0in /  0.0mm
01:52 32 °F /  0.0 °C 28.4 °F /  -2.0 °C 30in /  1015.1hPa West 3.8mph /  6.1km/h 6.5mph /  10.5km/h 90% 0in /  0.0mm
01:58 32 °F /  0.0 °C 28.4 °F /  -2.0 °C 29.9in /  1014.1hPa WSW 3.6mph /  5.8km/h 7.2mph /  11.6km/h 91% 0in /  0.0mm
02:08 31.5 °F /  -0.3 °C 26.6 °F /  -3.0 °C 29.9in /  1014.1hPa SW 4.3mph /  6.9km/h 6.3mph /  10.1km/h 90% 0in /  0.0mm
02:13 31.3 °F /  -0.4 °C 26.6 °F /  -3.0 °C 30in /  1015.1hPa Calm   6.3mph /  10.1km/h 90% 0in /  0.0mm
02:18 31.1 °F /  -0.5 °C 26.6 °F /  -3.0 °C 30in /  1015.1hPa West 5.4mph /  8.7km/h 6.3mph /  10.1km/h 91% 0in /  0.0mm
02:28 31.1 °F /  -0.5 °C 26.6 °F /  -3.0 °C 30in /  1015.1hPa Calm   6.5mph /  10.5km/h 92% 0in /  0.0mm
02:38 31.1 °F /  -0.5 °C 26.6 °F /  -3.0 °C 30in /  1015.1hPa West 3.8mph /  6.1km/h 7.4mph /  11.9km/h 92% 0in /  0.0mm
02:43 31.1 °F /  -0.5 °C 28.4 °F /  -2.0 °C 30in /  1015.1hPa West 2.9mph /  4.7km/h 7.2mph /  11.6km/h 93% 0in /  0.0mm
02:48 31.1 °F /  -0.5 °C 28.4 °F /  -2.0 °C 30in /  1015.1hPa West 5.4mph /  8.7km/h 7.2mph /  11.6km/h 93% 0in /  0.0mm
03:04 30.9 °F /  -0.6 °C 28.4 °F /  -2.0 °C 30in /  1015.1hPa SW 3.6mph /  5.8km/h 5.3mph /  8.5km/h 94% 0in /  0.0mm
03:14 30.7 °F /  -0.7 °C 28.4 °F /  -2.0 °C 30in /  1015.1hPa WSW 5.4mph /  8.7km/h 6.9mph /  11.1km/h 94% 0in /  0.0mm
03:19 30.7 °F /  -0.7 °C 28.4 °F /  -2.0 °C 30in /  1015.1hPa WSW 4.3mph /  6.9km/h 6.3mph /  10.1km/h 94% 0in /  0.0mm
03:24 30.7 °F /  -0.7 °C 28.4 °F /  -2.0 °C 30in /  1015.1hPa West 4mph /  6.4km/h 6.3mph /  10.1km/h 94% 0in /  0.0mm
03:29 30.6 °F /  -0.8 °C 26.6 °F /  -3.0 °C 30in /  1015.1hPa West 4.9mph /  7.9km/h 5.6mph /  9.0km/h 94% 0in /  0.0mm
03:34 30.7 °F /  -0.7 °C 28.4 °F /  -2.0 °C 30in /  1015.1hPa West 3.8mph /  6.1km/h 5.6mph /  9.0km/h 95% 0in /  0.0mm
03:49 30.6 °F /  -0.8 °C 28.4 °F /  -2.0 °C 30in /  1015.1hPa Calm   6.3mph /  10.1km/h 95% 0in /  0.0mm
03:54 30.4 °F /  -0.9 °C 28.4 °F /  -2.0 °C 30in /  1015.1hPa WSW 0.9mph /  1.4km/h 6mph /  9.7km/h 95% 0in /  0.0mm
04:02 30.4 °F /  -0.9 °C 28.4 °F /  -2.0 °C 30in /  1015.1hPa West 4.9mph /  7.9km/h 6mph /  9.7km/h 95% 0in /  0.0mm
04:07 30.4 °F /  -0.9 °C 28.4 °F /  -2.0 °C 30in /  1015.1hPa West 6.5mph /  10.5km/h 6.5mph /  10.5km/h 95% 0in /  0.0mm
04:13 30.6 °F /  -0.8 °C 28.4 °F /  -2.0 °C 29.9in /  1014.1hPa West 3.4mph /  5.5km/h 8.7mph /  14.0km/h 95% 0in /  0.0mm
04:18 30.7 °F /  -0.7 °C 28.4 °F /  -2.0 °C 29.9in /  1014.1hPa West 5.8mph /  9.3km/h 8.7mph /  14.0km/h 96% 0in /  0.0mm
04:23 30.9 °F /  -0.6 °C 28.4 °F /  -2.0 °C 29.9in /  1014.1hPa WSW 5.4mph /  8.7km/h 7.6mph /  12.2km/h 96% 0in /  0.0mm
04:24 30.9 °F /  -0.6 °C 28.4 °F /  -2.0 °C 29.9in /  1014.1hPa West 7.8mph /  12.6km/h 7.8mph /  12.6km/h 96% 0in /  0.0mm
04:27 30.9 °F /  -0.6 °C 28.4 °F /  -2.0 °C 30in /  1015.1hPa West 5.8mph /  9.3km/h 7.8mph /  12.6km/h 96% 0in /  0.0mm
04:32 31.1 °F /  -0.5 °C 28.4 °F /  -2.0 °C 30in /  1015.1hPa West 6.5mph /  10.5km/h 8.1mph /  13.0km/h 97% 0in /  0.0mm
04:42 31.1 °F /  -0.5 °C 28.4 °F /  -2.0 °C 30in /  1015.1hPa WSW 7.8mph /  12.6km/h 7.8mph /  12.6km/h 97% 0in /  0.0mm
04:47 31.1 °F /  -0.5 °C 28.4 °F /  -2.0 °C 30in /  1015.1hPa West 8.5mph /  13.7km/h 8.7mph /  14.0km/h 97% 0in /  0.0mm
04:57 31.1 °F /  -0.5 °C 28.4 °F /  -2.0 °C 30in /  1015.1hPa WSW 6mph /  9.7km/h 8.1mph /  13.0km/h 97% 0in /  0.0mm
05:03 30.9 °F /  -0.6 °C 28.4 °F /  -2.0 °C 30in /  1015.1hPa West 7.6mph /  12.2km/h 8.5mph /  13.7km/h 96% 0in /  0.0mm
05:08 30.9 °F /  -0.6 °C 28.4 °F /  -2.0 °C 30in /  1015.1hPa WSW 5.6mph /  9.0km/h 8.7mph /  14.0km/h 96% 0in /  0.0mm
05:13 30.9 °F /  -0.6 °C 28.4 °F /  -2.0 °C 30in /  1015.1hPa WSW 5.8mph /  9.3km/h 9.4mph /  15.1km/h 96% 0in /  0.0mm
05:18 30.9 °F /  -0.6 °C 28.4 °F /  -2.0 °C 30in /  1015.1hPa West 5.4mph /  8.7km/h 9.4mph /  15.1km/h 96% 0in /  0.0mm
05:23 30.9 °F /  -0.6 °C 28.4 °F /  -2.0 °C 30in /  1015.1hPa WSW 5.8mph /  9.3km/h 7.6mph /  12.2km/h 96% 0in /  0.0mm
05:28 30.9 °F /  -0.6 °C 28.4 °F /  -2.0 °C 30in /  1015.1hPa West 4.3mph /  6.9km/h 8.5mph /  13.7km/h 96% 0in /  0.0mm
05:38 30.9 °F /  -0.6 °C 28.4 °F /  -2.0 °C 30in /  1015.1hPa WSW 2.9mph /  4.7km/h 8.1mph /  13.0km/h 97% 0in /  0.0mm
05:43 30.9 °F /  -0.6 °C 28.4 °F /  -2.0 °C 30in /  1015.1hPa WSW 5.6mph /  9.0km/h 8.1mph /  13.0km/h 97% 0in /  0.0mm
05:49 30.9 °F /  -0.6 °C 28.4 °F /  -2.0 °C 30in /  1015.1hPa West 5.4mph /  8.7km/h 8.7mph /  14.0km/h 97% 0in /  0.0mm
05:54 30.9 °F /  -0.6 °C 28.4 °F /  -2.0 °C 30in /  1015.1hPa West 6.3mph /  10.1km/h 8.7mph /  14.0km/h 97% 0in /  0.0mm
05:59 30.9 °F /  -0.6 °C 28.4 °F /  -2.0 °C 30in /  1015.1hPa West 4mph /  6.4km/h 8.1mph /  13.0km/h 97% 0in /  0.0mm
06:09 30.9 °F /  -0.6 °C 28.4 °F /  -2.0 °C 30in /  1015.1hPa SW 5.8mph /  9.3km/h 7.4mph /  11.9km/h 97% 0in /  0.0mm
06:14 30.7 °F /  -0.7 °C 28.4 °F /  -2.0 °C 30in /  1015.1hPa West 5.4mph /  8.7km/h 7.6mph /  12.2km/h 96% 0in /  0.0mm
06:29 30.6 °F /  -0.8 °C 28.4 °F /  -2.0 °C 30in /  1015.1hPa West 3.1mph /  5.0km/h 6.5mph /  10.5km/h 96% 0in /  0.0mm
06:34 30.6 °F /  -0.8 °C 28.4 °F /  -2.0 °C 30in /  1015.1hPa SW 6mph /  9.7km/h 9.6mph /  15.4km/h 96% 0in /  0.0mm
06:39 30.6 °F /  -0.8 °C 28.4 °F /  -2.0 °C 30in /  1015.1hPa West 6.5mph /  10.5km/h 9.6mph /  15.4km/h 96% 0in /  0.0mm
06:42 30.6 °F /  -0.8 °C 28.4 °F /  -2.0 °C 29.9in /  1014.1hPa West 4.3mph /  6.9km/h 9.6mph /  15.4km/h 96% 0in /  0.0mm
06:47 30.6 °F /  -0.8 °C 28.4 °F /  -2.0 °C 29.9in /  1014.1hPa West 4.9mph /  7.9km/h 7.4mph /  11.9km/h 97% 0in /  0.0mm
06:57 30.4 °F /  -0.9 °C 28.4 °F /  -2.0 °C 30in /  1015.1hPa Calm   5.6mph /  9.0km/h 96% 0in /  0.0mm
07:02 30 °F /  -1.1 °C 28.4 °F /  -2.0 °C 30in /  1015.1hPa WSW 3.4mph /  5.5km/h 4.9mph /  7.9km/h 96% 0in /  0.0mm
07:07 29.8 °F /  -1.2 °C 28.4 °F /  -2.0 °C 30in /  1015.1hPa WSW 3.1mph /  5.0km/h 6.3mph /  10.1km/h 96% 0in /  0.0mm
07:12 30 °F /  -1.1 °C 28.4 °F /  -2.0 °C 30in /  1015.1hPa West 4.3mph /  6.9km/h 7.6mph /  12.2km/h 96% 0in /  0.0mm
07:17 30.2 °F /  -1.0 °C 28.4 °F /  -2.0 °C 30in /  1015.1hPa West 4.3mph /  6.9km/h 7.6mph /  12.2km/h 97% 0in /  0.0mm
07:27 30 °F /  -1.1 °C 28.4 °F /  -2.0 °C 30in /  1015.1hPa West 4.9mph /  7.9km/h 7.4mph /  11.9km/h 97% 0in /  0.0mm
07:32 30 °F /  -1.1 °C 28.4 °F /  -2.0 °C 30in /  1015.1hPa WSW 5.8mph /  9.3km/h 7.4mph /  11.9km/h 97% 0in /  0.0mm
07:42 29.7 °F /  -1.3 °C 28.4 °F /  -2.0 °C 30in /  1015.1hPa WSW 4.9mph /  7.9km/h 6.3mph /  10.1km/h 97% 0in /  0.0mm
07:52 29.7 °F /  -1.3 °C 28.4 °F /  -2.0 °C 30in /  1015.1hPa West 5.8mph /  9.3km/h 6.5mph /  10.5km/h 97% 0in /  0.0mm
07:57 29.7 °F /  -1.3 °C 28.4 °F /  -2.0 °C 30in /  1015.1hPa WSW 4.3mph /  6.9km/h 6.5mph /  10.5km/h 97% 0in /  0.0mm
08:02 29.7 °F /  -1.3 °C 28.4 °F /  -2.0 °C 30in /  1015.1hPa West 6.3mph /  10.1km/h 6.5mph /  10.5km/h 97% 0in /  0.0mm
08:07 29.7 °F /  -1.3 °C 28.4 °F /  -2.0 °C 30in /  1015.1hPa WSW 5.8mph /  9.3km/h 6.5mph /  10.5km/h 97% 0in /  0.0mm
08:17 29.7 °F /  -1.3 °C 28.4 °F /  -2.0 °C 29.9in /  1014.1hPa West 5.8mph /  9.3km/h 8.5mph /  13.7km/h 97% 0in /  0.0mm
08:22 29.5 °F /  -1.4 °C 28.4 °F /  -2.0 °C 29.9in /  1014.1hPa WSW 6mph /  9.7km/h 8.5mph /  13.7km/h 98% 0in /  0.0mm
08:28 29.7 °F /  -1.3 °C 28.4 °F /  -2.0 °C 30in /  1015.1hPa West 4.9mph /  7.9km/h 6.9mph /  11.1km/h 98% 0in /  0.0mm
08:33 29.7 °F /  -1.3 °C 28.4 °F /  -2.0 °C 30in /  1015.1hPa West 2.5mph /  4.0km/h 6.9mph /  11.1km/h 98% 0in /  0.0mm
08:38 29.7 °F /  -1.3 °C 28.4 °F /  -2.0 °C 30in /  1015.1hPa West 3.6mph /  5.8km/h 7.6mph /  12.2km/h 98% 0in /  0.0mm
08:48 29.8 °F /  -1.2 °C 28.4 °F /  -2.0 °C 30in /  1015.1hPa WSW 6.3mph /  10.1km/h 8.1mph /  13.0km/h 98% 0in /  0.0mm
08:53 29.8 °F /  -1.2 °C 28.4 °F /  -2.0 °C 30in /  1015.1hPa West 7.8mph /  12.6km/h 9.6mph /  15.4km/h 98% 0in /  0.0mm
08:55 29.8 °F /  -1.2 °C 28.4 °F /  -2.0 °C 30in /  1015.1hPa WSW 5.4mph /  8.7km/h 11mph /  17.7km/h 98% 0in /  0.0mm
09:01 29.8 °F /  -1.2 °C 28.4 °F /  -2.0 °C 30in /  1015.1hPa West 7.6mph /  12.2km/h 11mph /  17.7km/h 98% 0in /  0.0mm
09:06 29.8 °F /  -1.2 °C 28.4 °F /  -2.0 °C 30in /  1015.1hPa West 6.5mph /  10.5km/h 10.5mph /  16.9km/h 98% 0in /  0.0mm
09:11 31.1 °F /  -0.5 °C 30.2 °F /  -1.0 °C 30in /  1015.1hPa West 5.8mph /  9.3km/h 10.5mph /  16.9km/h 98% 0in /  0.0mm
09:16 31.3 °F /  -0.4 °C 30.2 °F /  -1.0 °C 30in /  1015.1hPa WSW 8.5mph /  13.7km/h 8.5mph /  13.7km/h 98% 0in /  0.0mm
09:21 31.3 °F /  -0.4 °C 30.2 °F /  -1.0 °C 30in /  1015.1hPa West 4mph /  6.4km/h 9.8mph /  15.8km/h 98% 0in /  0.0mm
09:26 31.3 °F /  -0.4 °C 30.2 °F /  -1.0 °C 30in /  1015.1hPa West 6.5mph /  10.5km/h 9.8mph /  15.8km/h 98% 0in /  0.0mm
09:31 31.3 °F /  -0.4 °C 30.2 °F /  -1.0 °C 30in /  1015.1hPa West 9.2mph /  14.8km/h 9.2mph /  14.8km/h 98% 0in /  0.0mm
09:32 31.3 °F /  -0.4 °C 30.2 °F /  -1.0 °C 30in /  1015.1hPa West 6.7mph /  10.8km/h 9.2mph /  14.8km/h 98% 0in /  0.0mm
09:38 31.3 °F /  -0.4 °C 30.2 °F /  -1.0 °C 30in /  1015.1hPa West 4.9mph /  7.9km/h 9.2mph /  14.8km/h 98% 0in /  0.0mm
09:58 31.3 °F /  -0.4 °C 30.2 °F /  -1.0 °C 30in /  1016.1hPa West 7.8mph /  12.6km/h 8.7mph /  14.0km/h 98% 0in /  0.0mm
10:03 31.3 °F /  -0.4 °C 30.2 °F /  -1.0 °C 30in /  1016.1hPa WSW 6.3mph /  10.1km/h 9.8mph /  15.8km/h 98% 0in /  0.0mm
10:08 31.3 °F /  -0.4 °C 30.2 °F /  -1.0 °C 30in /  1016.1hPa WSW 7.6mph /  12.2km/h 9.8mph /  15.8km/h 98% 0in /  0.0mm
10:18 31.3 °F /  -0.4 °C 30.2 °F /  -1.0 °C 30in /  1016.1hPa WSW 5.6mph /  9.0km/h 8.5mph /  13.7km/h 98% 0in /  0.0mm
10:23 31.3 °F /  -0.4 °C 30.2 °F /  -1.0 °C 30in /  1016.1hPa WSW 4.3mph /  6.9km/h 8.5mph /  13.7km/h 98% 0in /  0.0mm
10:28 31.3 °F /  -0.4 °C 30.2 °F /  -1.0 °C 30in /  1016.1hPa WSW 4mph /  6.4km/h 7.6mph /  12.2km/h 98% 0in /  0.0mm
10:33 31.3 °F /  -0.4 °C 30.2 °F /  -1.0 °C 30in /  1016.1hPa WSW 6.9mph /  11.1km/h 7.6mph /  12.2km/h 98% 0in /  0.0mm
10:38 34.7 °F /  1.5 °C 33.8 °F /  1.0 °C 30in /  1016.1hPa WSW 5.4mph /  8.7km/h 6.9mph /  11.1km/h 97% 0in /  0.0mm
10:43 34.9 °F /  1.6 °C 33.8 °F /  1.0 °C 30in /  1015.1hPa West 5.6mph /  9.0km/h 7.6mph /  12.2km/h 97% 0in /  0.0mm
10:53 35.2 °F /  1.8 °C 33.8 °F /  1.0 °C 30in /  1015.1hPa WSW 5.8mph /  9.3km/h 10.3mph /  16.6km/h 95% 0in /  0.0mm
10:58 35.4 °F /  1.9 °C 33.8 °F /  1.0 °C 30in /  1016.1hPa West 8.7mph /  14.0km/h 9.8mph /  15.8km/h 94% 0in /  0.0mm
11:03 35.6 °F /  2.0 °C 33.8 °F /  1.0 °C 30in /  1016.1hPa WSW 7.4mph /  11.9km/h 10.3mph /  16.6km/h 93% 0in /  0.0mm
11:08 36 °F /  2.2 °C 33.8 °F /  1.0 °C 30in /  1016.1hPa WSW 8.5mph /  13.7km/h 10.3mph /  16.6km/h 93% 0in /  0.0mm
11:13 36.1 °F /  2.3 °C 33.8 °F /  1.0 °C 30in /  1016.1hPa WSW 7.8mph /  12.6km/h 8.7mph /  14.0km/h 92% 0in /  0.0mm
11:19 36.3 °F /  2.4 °C 33.8 °F /  1.0 °C 30in /  1016.1hPa SSW 6.3mph /  10.1km/h 8.7mph /  14.0km/h 92% 0in /  0.0mm
11:24 36.7 °F /  2.6 °C 35.6 °F /  2.0 °C 30in /  1016.1hPa WSW 10.3mph /  16.6km/h 10.5mph /  16.9km/h 91% 0in /  0.0mm
11:29 36.9 °F /  2.7 °C 33.8 °F /  1.0 °C 30in /  1016.1hPa WSW 8.1mph /  13.0km/h 10.5mph /  16.9km/h 90% 0in /  0.0mm
11:34 37 °F /  2.8 °C 35.6 °F /  2.0 °C 30in /  1016.1hPa WSW 7.2mph /  11.6km/h 10.5mph /  16.9km/h 90% 0in /  0.0mm
11:44 37.4 °F /  3.0 °C 35.6 °F /  2.0 °C 30in /  1016.1hPa West 8.7mph /  14.0km/h 11.2mph /  18.0km/h 89% 0in /  0.0mm
12:04 37.9 °F /  3.3 °C 35.6 °F /  2.0 °C 30in /  1015.1hPa WSW 6.5mph /  10.5km/h 10.5mph /  16.9km/h 87% 0in /  0.0mm
12:09 38.3 °F /  3.5 °C 35.6 °F /  2.0 °C 30in /  1015.1hPa WSW 8.1mph /  13.0km/h 10.5mph /  16.9km/h 87% 0in /  0.0mm
12:14 38.5 °F /  3.6 °C 35.6 °F /  2.0 °C 30in /  1015.1hPa WSW 8.7mph /  14.0km/h 11mph /  17.7km/h 86% 0in /  0.0mm
12:19 38.7 °F /  3.7 °C 35.6 °F /  2.0 °C 30in /  1015.1hPa WSW 6mph /  9.7km/h 11mph /  17.7km/h 86% 0in /  0.0mm
12:29 39 °F /  3.9 °C 35.6 °F /  2.0 °C 30in /  1015.1hPa WSW 8.7mph /  14.0km/h 12.3mph /  19.8km/h 85% 0in /  0.0mm
12:44 39.4 °F /  4.1 °C 33.8 °F /  1.0 °C 30in /  1015.1hPa WSW 6.5mph /  10.5km/h 12.1mph /  19.5km/h 83% 0in /  0.0mm
12:49 39.6 °F /  4.2 °C 35.6 °F /  2.0 °C 30in /  1015.1hPa WNW 6.5mph /  10.5km/h 10.5mph /  16.9km/h 82% 0in /  0.0mm
12:54 39.6 °F /  4.2 °C 33.8 °F /  1.0 °C 30in /  1015.1hPa West 8.1mph /  13.0km/h 12.5mph /  20.1km/h 81% 0in /  0.0mm
13:00 39.2 °F /  4.0 °C 33.8 °F /  1.0 °C 30in /  1015.1hPa West 7.8mph /  12.6km/h 13mph /  20.9km/h 79% 0in /  0.0mm
13:05 38.8 °F /  3.8 °C 33.8 °F /  1.0 °C 30in /  1015.1hPa SSW 5.4mph /  8.7km/h 13mph /  20.9km/h 79% 0in /  0.0mm
13:10 38.7 °F /  3.7 °C 33.8 °F /  1.0 °C 30in /  1015.1hPa WSW 8.1mph /  13.0km/h 12.1mph /  19.5km/h 80% 0in /  0.0mm
13:15 38.5 °F /  3.6 °C 33.8 °F /  1.0 °C 30in /  1015.1hPa West 6mph /  9.7km/h 12.5mph /  20.1km/h 80% 0in /  0.0mm
13:20 38.5 °F /  3.6 °C 33.8 °F /  1.0 °C 30in /  1015.1hPa WSW 8.5mph /  13.7km/h 13mph /  20.9km/h 80% 0in /  0.0mm
13:25 38.5 °F /  3.6 °C 33.8 °F /  1.0 °C 30in /  1015.1hPa West 6mph /  9.7km/h 13mph /  20.9km/h 80% 0in /  0.0mm
13:30 38.5 °F /  3.6 °C 33.8 °F /  1.0 °C 30in /  1016.1hPa West 6.3mph /  10.1km/h 11.9mph /  19.1km/h 81% 0in /  0.0mm
13:35 38.5 °F /  3.6 °C 33.8 °F /  1.0 °C 30in /  1016.1hPa West 8.5mph /  13.7km/h 12.5mph /  20.1km/h 80% 0in /  0.0mm
13:40 38.3 °F /  3.5 °C 33.8 °F /  1.0 °C 30in /  1016.1hPa SW 10.1mph /  16.3km/h 14.8mph /  23.8km/h 79% 0in /  0.0mm
13:45 38.3 °F /  3.5 °C 33.8 °F /  1.0 °C 30in /  1015.1hPa West 6mph /  9.7km/h 14.8mph /  23.8km/h 79% 0in /  0.0mm
13:50 38.3 °F /  3.5 °C 33.8 °F /  1.0 °C 30in /  1015.1hPa West 8.5mph /  13.7km/h 12.8mph /  20.6km/h 80% 0in /  0.0mm
13:56 38.1 °F /  3.4 °C 32 °F /  0.0 °C 30in /  1015.1hPa West 5.6mph /  9.0km/h 11mph /  17.7km/h 79% 0in /  0.0mm
14:01 38.1 °F /  3.4 °C 33.8 °F /  1.0 °C 30in /  1015.1hPa WSW 7.8mph /  12.6km/h 11mph /  17.7km/h 80% 0in /  0.0mm
14:06 38.3 °F /  3.5 °C 33.8 °F /  1.0 °C 30in /  1015.1hPa West 6mph /  9.7km/h 9.8mph /  15.8km/h 80% 0in /  0.0mm
14:11 38.3 °F /  3.5 °C 33.8 °F /  1.0 °C 30in /  1015.1hPa West 8.7mph /  14.0km/h 9.6mph /  15.4km/h 81% 0in /  0.0mm
14:16 38.3 °F /  3.5 °C 33.8 °F /  1.0 °C 30in /  1015.1hPa WSW 5.8mph /  9.3km/h 10.1mph /  16.3km/h 80% 0in /  0.0mm
14:21 38.5 °F /  3.6 °C 33.8 °F /  1.0 °C 30in /  1015.1hPa West 6.5mph /  10.5km/h 10.1mph /  16.3km/h 79% 0in /  0.0mm
14:31 38.5 °F /  3.6 °C 33.8 °F /  1.0 °C 29.9in /  1014.1hPa WSW 5.8mph /  9.3km/h 9.2mph /  14.8km/h 79% 0in /  0.0mm
14:36 38.5 °F /  3.6 °C 33.8 °F /  1.0 °C 29.9in /  1014.1hPa WSW 7.4mph /  11.9km/h 8.7mph /  14.0km/h 79% 0in /  0.0mm
14:51 38.5 °F /  3.6 °C 33.8 °F /  1.0 °C 29.9in /  1014.1hPa West 4mph /  6.4km/h 8.1mph /  13.0km/h 81% 0in /  0.0mm
15:01 38.3 °F /  3.5 °C 33.8 °F /  1.0 °C 29.9in /  1014.1hPa WSW 4.3mph /  6.9km/h 6.3mph /  10.1km/h 82% 0in /  0.0mm
15:06 38.1 °F /  3.4 °C 33.8 °F /  1.0 °C 29.9in /  1014.1hPa WSW 4mph /  6.4km/h 6.3mph /  10.1km/h 82% 0in /  0.0mm
15:11 37.9 °F /  3.3 °C 33.8 °F /  1.0 °C 29.9in /  1014.1hPa SW 4.7mph /  7.6km/h 6.3mph /  10.1km/h 82% 0in /  0.0mm
15:16 37.9 °F /  3.3 °C 33.8 °F /  1.0 °C 29.9in /  1014.1hPa WSW 4.9mph /  7.9km/h 6.3mph /  10.1km/h 82% 0in /  0.0mm
15:21 37.9 °F /  3.3 °C 33.8 °F /  1.0 °C 29.9in /  1014.1hPa West 5.8mph /  9.3km/h 6.5mph /  10.5km/h 82% 0in /  0.0mm
15:26 37.9 °F /  3.3 °C 33.8 °F /  1.0 °C 29.9in /  1013.1hPa WSW 4.7mph /  7.6km/h 8.1mph /  13.0km/h 82% 0in /  0.0mm
15:41 38.7 °F /  3.7 °C 33.8 °F /  1.0 °C 29.9in /  1013.1hPa Calm   7.2mph /  11.6km/h 82% 0in /  0.0mm
15:46 38.5 °F /  3.6 °C 33.8 °F /  1.0 °C 29.9in /  1013.1hPa WSW 4.5mph /  7.2km/h 7.6mph /  12.2km/h 82% 0in /  0.0mm
16:02 38.1 °F /  3.4 °C 33.8 °F /  1.0 °C 29.9in /  1013.1hPa SSW 3.8mph /  6.1km/h 5.8mph /  9.3km/h 81% 0in /  0.0mm
16:07 38.1 °F /  3.4 °C 33.8 °F /  1.0 °C 29.9in /  1013.1hPa SW 4.9mph /  7.9km/h 5.6mph /  9.0km/h 81% 0in /  0.0mm
16:12 37.9 °F /  3.3 °C 33.8 °F /  1.0 °C 29.9in /  1013.1hPa SSW 2.9mph /  4.7km/h 5.6mph /  9.0km/h 80% 0in /  0.0mm
16:17 37.9 °F /  3.3 °C 33.8 °F /  1.0 °C 29.9in /  1013.1hPa Calm   5.8mph /  9.3km/h 80% 0in /  0.0mm
16:27 37.4 °F /  3.0 °C 32 °F /  0.0 °C 29.9in /  1013.1hPa SSW 4.3mph /  6.9km/h 5.8mph /  9.3km/h 80% 0in /  0.0mm
16:32 37.2 °F /  2.9 °C 32 °F /  0.0 °C 29.9in /  1013.1hPa SW 3.8mph /  6.1km/h 5.6mph /  9.0km/h 81% 0in /  0.0mm
16:37 37 °F /  2.8 °C 32 °F /  0.0 °C 29.9in /  1013.1hPa Calm   4.7mph /  7.6km/h 81% 0in /  0.0mm
16:42 36.9 °F /  2.7 °C 32 °F /  0.0 °C 29.9in /  1013.1hPa SW 3.1mph /  5.0km/h 4.9mph /  7.9km/h 81% 0in /  0.0mm
16:47 36.7 °F /  2.6 °C 32 °F /  0.0 °C 29.9in /  1013.1hPa SSW 3.1mph /  5.0km/h 4.9mph /  7.9km/h 81% 0in /  0.0mm
16:52 36.5 °F /  2.5 °C 32 °F /  0.0 °C 29.9in /  1013.1hPa Calm   5.4mph /  8.7km/h 82% 0in /  0.0mm
16:57 36.5 °F /  2.5 °C 32 °F /  0.0 °C 29.9in /  1013.1hPa SW 4.9mph /  7.9km/h 6mph /  9.7km/h 82% 0in /  0.0mm
17:02 36.5 °F /  2.5 °C 32 °F /  0.0 °C 29.9in /  1013.1hPa SW 5.4mph /  8.7km/h 6mph /  9.7km/h 82% 0in /  0.0mm
17:07 36.3 °F /  2.4 °C 32 °F /  0.0 °C 29.9in /  1013.1hPa WSW 4.7mph /  7.6km/h 5.8mph /  9.3km/h 82% 0in /  0.0mm
17:12 35.8 °F /  2.1 °C 30.2 °F /  -1.0 °C 29.9in /  1013.1hPa WSW 5.6mph /  9.0km/h 6mph /  9.7km/h 81% 0in /  0.0mm
17:17 35.6 °F /  2.0 °C 30.2 °F /  -1.0 °C 29.9in /  1013.1hPa WSW 5.4mph /  8.7km/h 6.3mph /  10.1km/h 81% 0in /  0.0mm
17:22 35.2 °F /  1.8 °C 30.2 °F /  -1.0 °C 29.9in /  1013.1hPa WSW 5.6mph /  9.0km/h 6.3mph /  10.1km/h 82% 0in /  0.0mm
17:27 34.9 °F /  1.6 °C 30.2 °F /  -1.0 °C 29.9in /  1012.1hPa WSW 4.9mph /  7.9km/h 6mph /  9.7km/h 82% 0in /  0.0mm
17:32 34.7 °F /  1.5 °C 30.2 °F /  -1.0 °C 29.9in /  1012.1hPa Calm   5.8mph /  9.3km/h 83% 0in /  0.0mm
17:38 34.5 °F /  1.4 °C 30.2 °F /  -1.0 °C 29.9in /  1012.1hPa WSW 4.9mph /  7.9km/h 5.8mph /  9.3km/h 83% 0in /  0.0mm
17:39 34.5 °F /  1.4 °C 30.2 °F /  -1.0 °C 29.9in /  1012.1hPa WSW 3.1mph /  5.0km/h 5.8mph /  9.3km/h 83% 0in /  0.0mm
17:44 34.3 °F /  1.3 °C 30.2 °F /  -1.0 °C 29.9in /  1012.1hPa WSW 5.4mph /  8.7km/h 5.6mph /  9.0km/h 84% 0in /  0.0mm
17:49 34.7 °F /  1.5 °C 32 °F /  0.0 °C 29.9in /  1012.1hPa SW 4.9mph /  7.9km/h 6.3mph /  10.1km/h 85% 0in /  0.0mm
17:54 34.9 °F /  1.6 °C 32 °F /  0.0 °C 29.9in /  1012.1hPa SSW 3.8mph /  6.1km/h 6.3mph /  10.1km/h 85% 0in /  0.0mm
17:59 35.1 °F /  1.7 °C 32 °F /  0.0 °C 29.9in /  1012.1hPa SSW 6.3mph /  10.1km/h 6.3mph /  10.1km/h 85% 0in /  0.0mm
18:09 35.4 °F /  1.9 °C 32 °F /  0.0 °C 29.9in /  1012.1hPa SSW 6.5mph /  10.5km/h 8.7mph /  14.0km/h 85% 0in /  0.0mm
18:14 35.4 °F /  1.9 °C 32 °F /  0.0 °C 29.9in /  1012.1hPa SSW 4mph /  6.4km/h 8.1mph /  13.0km/h 86% 0in /  0.0mm
18:20 35.2 °F /  1.8 °C 32 °F /  0.0 °C 29.9in /  1012.1hPa WSW 4.9mph /  7.9km/h 7.6mph /  12.2km/h 86% 0in /  0.0mm
18:25 35.2 °F /  1.8 °C 32 °F /  0.0 °C 29.9in /  1012.1hPa SW 4.9mph /  7.9km/h 7.4mph /  11.9km/h 86% 0in /  0.0mm
18:30 35.2 °F /  1.8 °C 32 °F /  0.0 °C 29.9in /  1012.1hPa WSW 7.4mph /  11.9km/h 8.7mph /  14.0km/h 87% 0in /  0.0mm
18:45 35.1 °F /  1.7 °C 32 °F /  0.0 °C 29.9in /  1011.1hPa SSW 6mph /  9.7km/h 8.9mph /  14.3km/h 89% 0in /  0.0mm
18:50 35.1 °F /  1.7 °C 32 °F /  0.0 °C 29.9in /  1011.1hPa SW 6.3mph /  10.1km/h 9.8mph /  15.8km/h 89% 0in /  0.0mm
18:55 34.9 °F /  1.6 °C 32 °F /  0.0 °C 29.9in /  1011.1hPa SSW 8.5mph /  13.7km/h 10.3mph /  16.6km/h 90% 0in /  0.0mm
19:00 34.9 °F /  1.6 °C 33.8 °F /  1.0 °C 29.9in /  1011.1hPa SSW 5.8mph /  9.3km/h 10.3mph /  16.6km/h 91% 0in /  0.0mm
19:05 34.9 °F /  1.6 °C 33.8 °F /  1.0 °C 29.9in /  1011.1hPa SSW 5.8mph /  9.3km/h 8.7mph /  14.0km/h 91% 0in /  0.0mm
19:10 34.7 °F /  1.5 °C 33.8 °F /  1.0 °C 29.9in /  1011.1hPa WSW 4mph /  6.4km/h 8.7mph /  14.0km/h 91% 0in /  0.0mm
19:25 34.3 °F /  1.3 °C 32 °F /  0.0 °C 29.9in /  1011.1hPa South 6.5mph /  10.5km/h 6.7mph /  10.8km/h 92% 0in /  0.0mm
19:40 34.3 °F /  1.3 °C 33.8 °F /  1.0 °C 29.9in /  1011.1hPa SW 4.3mph /  6.9km/h 7.8mph /  12.6km/h 94% 0in /  0.0mm
19:50 34.2 °F /  1.2 °C 33.8 °F /  1.0 °C 29.9in /  1011.1hPa SSW 5.8mph /  9.3km/h 7.4mph /  11.9km/h 94% 0in /  0.0mm
19:55 34.2 °F /  1.2 °C 33.8 °F /  1.0 °C 29.9in /  1011.1hPa Calm   7.4mph /  11.9km/h 94% 0in /  0.0mm
20:00 34.2 °F /  1.2 °C 33.8 °F /  1.0 °C 29.9in /  1011.1hPa SW 5.4mph /  8.7km/h 6.5mph /  10.5km/h 95% 0in /  0.0mm
20:06 34.2 °F /  1.2 °C 33.8 °F /  1.0 °C 29.9in /  1011.1hPa SSW 4.9mph /  7.9km/h 8.7mph /  14.0km/h 95% 0in /  0.0mm
20:16 34.3 °F /  1.3 °C 33.8 °F /  1.0 °C 29.9in /  1011.1hPa WSW 4.3mph /  6.9km/h 7.2mph /  11.6km/h 96% 0in /  0.0mm
20:21 34.3 °F /  1.3 °C 33.8 °F /  1.0 °C 29.9in /  1011.1hPa South 6.5mph /  10.5km/h 7.8mph /  12.6km/h 96% 0in /  0.0mm
20:31 34.5 °F /  1.4 °C 33.8 °F /  1.0 °C 29.9in /  1011.1hPa South 5.4mph /  8.7km/h 6.5mph /  10.5km/h 97% 0in /  0.0mm
20:36 34.5 °F /  1.4 °C 33.8 °F /  1.0 °C 29.9in /  1011.1hPa SW 4.3mph /  6.9km/h 6.7mph /  10.8km/h 97% 0in /  0.0mm
20:41 34.7 °F /  1.5 °C 33.8 °F /  1.0 °C 29.9in /  1011.1hPa SW 6mph /  9.7km/h 6.7mph /  10.8km/h 97% 0in /  0.0mm
20:46 34.9 °F /  1.6 °C 33.8 °F /  1.0 °C 29.9in /  1011.1hPa SW 8.5mph /  13.7km/h 8.5mph /  13.7km/h 97% 0in /  0.0mm
20:51 34.9 °F /  1.6 °C 33.8 °F /  1.0 °C 29.9in /  1011.1hPa SW 4mph /  6.4km/h 8.5mph /  13.7km/h 97% 0in /  0.0mm
20:56 34.9 °F /  1.6 °C 35.6 °F /  2.0 °C 29.8in /  1010.0hPa WSW 8.1mph /  13.0km/h 8.7mph /  14.0km/h 98% 0in /  0.0mm
21:01 34.9 °F /  1.6 °C 35.6 °F /  2.0 °C 29.8in /  1010.0hPa WSW 4.9mph /  7.9km/h 8.7mph /  14.0km/h 98% 0in /  0.0mm
21:06 35.1 °F /  1.7 °C 35.6 °F /  2.0 °C 29.8in /  1010.0hPa SW 5.8mph /  9.3km/h 8.7mph /  14.0km/h 98% 0in /  0.0mm
21:16 34.9 °F /  1.6 °C 35.6 °F /  2.0 °C 29.8in /  1010.0hPa SW 4.9mph /  7.9km/h 7.8mph /  12.6km/h 98% 0in /  0.0mm
21:21 35.1 °F /  1.7 °C 35.6 °F /  2.0 °C 29.8in /  1010.0hPa WSW 6.5mph /  10.5km/h 8.1mph /  13.0km/h 98% 0in /  0.0mm
21:26 35.1 °F /  1.7 °C 35.6 °F /  2.0 °C 29.8in /  1009.0hPa SW 6.7mph /  10.8km/h 8.1mph /  13.0km/h 98% 0in /  0.0mm
21:37 34.9 °F /  1.6 °C 35.6 °F /  2.0 °C 29.8in /  1009.0hPa SSW 4.9mph /  7.9km/h 7.2mph /  11.6km/h 98% 0in /  0.0mm
21:47 35.1 °F /  1.7 °C 35.6 °F /  2.0 °C 29.8in /  1009.0hPa WSW 4.9mph /  7.9km/h 7.2mph /  11.6km/h 98% 0in /  0.0mm
22:02 34.9 °F /  1.6 °C 35.6 °F /  2.0 °C 29.8in /  1009.0hPa SW 6.7mph /  10.8km/h 6.7mph /  10.8km/h 98% 0in /  0.0mm
22:07 34.9 °F /  1.6 °C 35.6 °F /  2.0 °C 29.8in /  1009.0hPa SSW 3.6mph /  5.8km/h 7.4mph /  11.9km/h 98% 0in /  0.0mm
22:12 34.9 °F /  1.6 °C 35.6 °F /  2.0 °C 29.8in /  1009.0hPa SW 5.4mph /  8.7km/h 7.4mph /  11.9km/h 98% 0in /  0.0mm
22:22 34.7 °F /  1.5 °C 35.6 °F /  2.0 °C 29.8in /  1009.0hPa SSW 4.3mph /  6.9km/h 5.8mph /  9.3km/h 98% 0in /  0.0mm
22:32 34.5 °F /  1.4 °C 33.8 °F /  1.0 °C 29.8in /  1009.0hPa Calm   4.9mph /  7.9km/h 98% 0in /  0.0mm
22:37 34.5 °F /  1.4 °C 33.8 °F /  1.0 °C 29.8in /  1009.0hPa West 3.6mph /  5.8km/h 3.6mph /  5.8km/h 98% 0in /  0.0mm
22:47 34.5 °F /  1.4 °C 33.8 °F /  1.0 °C 29.8in /  1009.0hPa SSW 2.9mph /  4.7km/h 4.3mph /  6.9km/h 98% 0in /  0.0mm
22:52 34.5 °F /  1.4 °C 33.8 °F /  1.0 °C 29.8in /  1009.0hPa Calm   4.3mph /  6.9km/h 98% 0in /  0.0mm
22:57 34.5 °F /  1.4 °C 33.8 °F /  1.0 °C 29.8in /  1008.0hPa South 1.6mph /  2.6km/h 4.3mph /  6.9km/h 98% 0in /  0.0mm
23:08 34.5 °F /  1.4 °C 33.8 °F /  1.0 °C 29.8in /  1008.0hPa Calm   3.4mph /  5.5km/h 98% 0in /  0.0mm
23:13 34.5 °F /  1.4 °C 33.8 °F /  1.0 °C 29.7in /  1007.0hPa Calm   3.6mph /  5.8km/h 98% 0in /  0.0mm
23:18 34.5 °F /  1.4 °C 33.8 °F /  1.0 °C 29.7in /  1007.0hPa SSW 3.1mph /  5.0km/h 5.4mph /  8.7km/h 98% 0in /  0.0mm
23:23 34.5 °F /  1.4 °C 33.8 °F /  1.0 °C 29.7in /  1007.0hPa SW 2.7mph /  4.3km/h 5.4mph /  8.7km/h 98% 0in /  0.0mm
23:28 34.5 °F /  1.4 °C 33.8 °F /  1.0 °C 29.7in /  1007.0hPa Calm   4.9mph /  7.9km/h 98% 0in /  0.0mm
23:33 34.5 °F /  1.4 °C 33.8 °F /  1.0 °C 29.7in /  1007.0hPa SSW 2.7mph /  4.3km/h 4mph /  6.4km/h 98% 0in /  0.0mm
23:38 34.5 °F /  1.4 °C 33.8 °F /  1.0 °C 29.7in /  1007.0hPa Calm   4mph /  6.4km/h 98% 0in /  0.0mm
23:53 34.5 °F /  1.4 °C 33.8 °F /  1.0 °C 29.7in /  1007.0hPa SW 5.6mph /  9.0km/h 7.6mph /  12.2km/h 98% 0in /  0.0mm
23:58 34.5 °F /  1.4 °C 33.8 °F /  1.0 °C 29.7in /  1007.0hPa SSW 3.8mph /  6.1km/h 7.2mph /  11.6km/h 98% 0in /  0.0mm
Données Historique de Météo Turbie

Mise a jour : 20/07/2018 22:09:12
Généré par Cumulus 1.9.4 (1099)